Terminal Aerodrome Forecast
Issued by NWS South Bend, IN

Home | Current Version | Previous Version | Graphics & Text | Print | Product List | Glossary Off
Versions: 1 2 3 4 5 6 7 8 9 10 11 12 13

000
FTUS43 KIWX 271700
TAFSBN
TAF
KSBN 271720Z 2718/2818 34014G23KT P6SM SCT050
     FM280200 36003KT P6SM SKC
     FM281500 34008KT P6SM BKN035=

USA.gov is the U.S. government's official web portal to all federal, state and local government web resources and services.